createdAt,value
2022-12-02T00:02:01.868Z,14.52
2022-12-02T00:04:30.496Z,14.85
2022-12-02T00:06:59.159Z,15.18
2022-12-02T00:09:30.224Z,14.38
2022-12-02T00:11:58.761Z,14.25
2022-12-02T00:14:30.194Z,14.57
2022-12-02T00:16:58.723Z,14.30
2022-12-02T00:19:27.069Z,14.38
2022-12-02T00:21:55.518Z,13.93
2022-12-02T00:24:23.908Z,13.45
2022-12-02T00:26:53.713Z,13.38
2022-12-02T00:29:22.402Z,13.88
2022-12-02T00:31:50.984Z,13.98
2022-12-02T00:34:19.401Z,13.25
2022-12-02T00:36:47.993Z,13.48
2022-12-02T00:39:17.103Z,13.38
2022-12-02T00:41:45.598Z,13.68
2022-12-02T00:44:32.853Z,13.43
2022-12-02T00:47:01.122Z,13.10
2022-12-02T00:49:29.412Z,13.00
2022-12-02T00:51:57.755Z,13.30
2022-12-02T00:54:26.249Z,13.20
2022-12-02T00:56:54.558Z,12.63
2022-12-02T00:59:24.564Z,12.13
2022-12-02T01:01:54.212Z,12.35
2022-12-02T01:04:22.595Z,12.13
2022-12-02T01:06:50.920Z,12.02
2022-12-02T01:09:19.197Z,12.20
2022-12-02T01:11:47.507Z,12.43
2022-12-02T01:14:15.799Z,12.15
2022-12-02T01:16:45.440Z,12.10
2022-12-02T01:19:13.736Z,11.93
2022-12-02T01:21:41.844Z,12.00
2022-12-02T01:24:10.109Z,11.88
2022-12-02T01:26:38.921Z,11.82
2022-12-02T01:29:08.913Z,11.32
2022-12-02T01:31:37.122Z,11.32
2022-12-02T01:34:06.649Z,11.90
2022-12-02T01:36:34.837Z,11.23
2022-12-02T01:39:03.020Z,11.57
2022-12-02T01:41:31.261Z,11.10
2022-12-02T01:43:59.372Z,10.90
2022-12-02T01:46:27.580Z,11.40
2022-12-02T01:48:55.734Z,11.15
2022-12-02T01:51:25.317Z,10.80
2022-12-02T01:53:53.411Z,10.93
2022-12-02T01:56:21.910Z,10.63
2022-12-02T01:58:50.002Z,10.82
2022-12-02T02:01:26.055Z,11.38
2022-12-02T02:03:54.514Z,10.55
2022-12-02T02:06:23.072Z,9.93
2022-12-02T02:08:53.313Z,10.38
2022-12-02T02:11:21.801Z,9.98
2022-12-02T02:13:50.092Z,10.45
2022-12-02T02:16:18.712Z,9.88
2022-12-02T02:18:46.933Z,10.00
2022-12-02T02:21:17.960Z,10.23
2022-12-02T02:23:47.641Z,9.82
2022-12-02T02:26:15.888Z,9.80
2022-12-02T02:28:44.512Z,9.85
2022-12-02T02:31:12.962Z,9.73
2022-12-02T02:33:44.908Z,9.88
2022-12-02T02:36:13.083Z,9.52
2022-12-02T02:38:41.228Z,9.88
2022-12-02T02:41:10.772Z,9.07
2022-12-02T02:43:39.221Z,9.18
2022-12-02T02:46:09.194Z,8.98
2022-12-02T02:48:40.616Z,9.32
2022-12-02T02:51:08.901Z,9.30
2022-12-02T02:53:37.301Z,9.20
2022-12-02T02:56:07.672Z,9.10
2022-12-02T02:58:38.976Z,8.57
2022-12-02T03:01:09.727Z,9.30
2022-12-02T03:03:40.280Z,8.93
2022-12-02T03:06:10.042Z,9.05
2022-12-02T03:08:38.652Z,8.52
2022-12-02T03:11:07.097Z,8.63
2022-12-02T03:13:36.281Z,8.50
2022-12-02T03:16:06.634Z,8.80
2022-12-02T03:18:34.823Z,8.82
2022-12-02T03:21:02.939Z,8.43
2022-12-02T03:23:31.692Z,8.13
2022-12-02T03:25:59.856Z,8.65
2022-12-02T03:28:28.052Z,7.82
2022-12-02T03:30:56.197Z,8.05
2022-12-02T03:33:25.805Z,7.97
2022-12-02T03:35:54.014Z,7.78
2022-12-02T03:38:22.164Z,7.97
2022-12-02T03:40:50.644Z,8.25
2022-12-02T03:43:18.737Z,7.90
2022-12-02T03:45:47.047Z,8.10
2022-12-02T03:48:20.948Z,8.20
2022-12-02T03:50:50.552Z,8.13
2022-12-02T03:53:18.714Z,7.82
2022-12-02T03:55:46.791Z,7.97
2022-12-02T03:58:14.904Z,7.38
2022-12-02T04:00:42.970Z,7.35
2022-12-02T04:03:11.242Z,7.78
2022-12-02T04:05:39.395Z,8.02
2022-12-02T04:08:09.014Z,7.65
2022-12-02T04:10:37.209Z,8.38
2022-12-02T04:13:05.428Z,7.80
2022-12-02T04:15:33.585Z,7.55
2022-12-02T04:18:01.820Z,7.40
2022-12-02T04:20:29.888Z,7.47
2022-12-02T04:22:58.237Z,7.30
2022-12-02T04:25:27.779Z,6.90
2022-12-02T04:27:55.976Z,6.93
2022-12-02T04:30:24.069Z,7.15
2022-12-02T04:32:52.261Z,6.95
2022-12-02T04:35:20.373Z,7.18
2022-12-02T04:37:49.303Z,7.07
2022-12-02T04:40:17.564Z,6.28
2022-12-02T04:42:47.109Z,7.10
2022-12-02T04:45:15.248Z,6.40
2022-12-02T04:47:43.444Z,6.47
2022-12-02T04:50:12.656Z,6.78
2022-12-02T04:52:40.921Z,6.70
2022-12-02T04:55:09.932Z,6.90
2022-12-02T04:57:38.178Z,6.38
2022-12-02T05:00:09.725Z,6.60
2022-12-02T05:02:37.957Z,6.75
2022-12-02T05:05:06.688Z,6.70
2022-12-02T05:07:34.946Z,6.47
2022-12-02T05:10:03.104Z,6.95
2022-12-02T05:12:32.613Z,6.53
2022-12-02T05:15:01.456Z,6.50
2022-12-02T05:17:31.302Z,6.13
2022-12-02T05:20:00.237Z,6.32
2022-12-02T05:22:28.404Z,6.13
2022-12-02T05:24:56.473Z,6.18
2022-12-02T05:27:24.663Z,6.55
2022-12-02T05:29:52.769Z,5.53
2022-12-02T05:32:20.971Z,6.13
2022-12-02T05:34:50.792Z,6.22
2022-12-02T05:37:19.213Z,6.05
2022-12-02T05:39:47.310Z,7.13
2022-12-02T05:42:15.702Z,6.25
2022-12-02T05:44:44.355Z,5.72
2022-12-02T05:47:13.792Z,6.53
2022-12-02T05:49:42.286Z,5.60
2022-12-02T05:52:20.532Z,5.82
2022-12-02T05:54:48.967Z,6.45
2022-12-02T05:57:17.343Z,5.95
2022-12-02T05:59:45.993Z,6.07
2022-12-02T06:02:23.890Z,6.28
2022-12-02T06:04:52.535Z,5.18
2022-12-02T06:07:22.376Z,5.65
2022-12-02T06:09:52.205Z,5.88
2022-12-02T06:12:20.543Z,5.80
2022-12-02T06:14:50.057Z,5.70
2022-12-02T06:17:18.661Z,5.80
2022-12-02T06:19:48.238Z,5.40
2022-12-02T06:22:19.497Z,5.60
2022-12-02T06:24:49.443Z,5.00
2022-12-02T06:27:18.129Z,5.70
2022-12-02T06:29:48.789Z,5.28
2022-12-02T06:32:19.538Z,5.75
2022-12-02T06:34:48.218Z,5.05
2022-12-02T06:37:18.250Z,5.10
2022-12-02T06:40:19.931Z,5.50
2022-12-02T06:42:37.154Z,5.60
2022-12-02T06:45:08.057Z,5.22
2022-12-02T06:47:50.609Z,5.47
2022-12-02T06:50:29.907Z,5.57
2022-12-02T06:53:04.184Z,5.82
2022-12-02T06:55:34.817Z,5.18
2022-12-02T06:58:24.202Z,5.72
2022-12-02T07:00:52.652Z,5.35
2022-12-02T07:03:28.263Z,5.30
2022-12-02T07:05:56.770Z,4.93
2022-12-02T07:08:25.171Z,5.00
2022-12-02T07:10:54.870Z,4.75
2022-12-02T07:13:23.246Z,5.07
2022-12-02T07:15:51.574Z,5.53
2022-12-02T07:18:20.825Z,5.70
2022-12-02T07:20:49.350Z,6.78
2022-12-02T07:23:19.906Z,9.23
2022-12-02T07:25:48.756Z,11.65
2022-12-02T07:28:24.858Z,10.68
2022-12-02T07:30:57.268Z,13.88
2022-12-02T07:33:25.548Z,13.43
2022-12-02T07:35:53.791Z,16.35
2022-12-02T07:38:42.935Z,22.85
2022-12-02T07:41:10.137Z,17.50
2022-12-02T07:43:41.135Z,19.20
2022-12-02T07:46:09.362Z,18.48
2022-12-02T07:48:37.517Z,18.70
2022-12-02T07:51:06.108Z,18.50
2022-12-02T07:53:34.185Z,18.73
2022-12-02T07:56:02.340Z,17.92
2022-12-02T07:58:55.310Z,21.40
2022-12-02T08:01:20.380Z,24.00
2022-12-02T08:03:48.658Z,28.55
2022-12-02T08:06:16.739Z,28.38
2022-12-02T08:08:44.898Z,31.35
2022-12-02T08:11:13.097Z,26.95
2022-12-02T08:13:41.213Z,26.98
2022-12-02T08:16:11.254Z,24.88
2022-12-02T08:18:40.849Z,25.02
2022-12-02T08:21:09.704Z,22.95
2022-12-02T08:23:37.898Z,21.67
2022-12-02T08:26:06.287Z,20.98
2022-12-02T08:28:34.369Z,20.30
2022-12-02T08:31:02.623Z,19.48
2022-12-02T08:33:30.786Z,19.63
2022-12-02T08:36:00.441Z,19.80
2022-12-02T08:38:38.728Z,19.52
2022-12-02T08:41:13.465Z,20.45
2022-12-02T08:43:42.512Z,20.50
2022-12-02T08:46:10.877Z,20.02
2022-12-02T08:48:39.099Z,19.73
2022-12-02T08:51:08.658Z,20.20
2022-12-02T08:53:36.964Z,20.25
2022-12-02T08:56:05.246Z,18.40
2022-12-02T08:58:33.401Z,18.17
2022-12-02T09:01:01.561Z,17.90
2022-12-02T09:03:29.850Z,17.58
2022-12-02T09:05:58.398Z,19.42
2022-12-02T09:08:28.099Z,20.00
2022-12-02T09:10:56.574Z,20.95
2022-12-02T09:13:24.744Z,23.05
2022-12-02T09:15:52.986Z,22.83
2022-12-02T09:18:21.097Z,23.40
2022-12-02T09:20:49.578Z,24.67
2022-12-02T09:23:17.693Z,23.75
2022-12-02T09:25:47.189Z,24.63
2022-12-02T09:28:15.261Z,24.88
2022-12-02T09:30:43.583Z,26.65
2022-12-02T09:33:11.819Z,27.20
2022-12-02T09:35:39.994Z,26.42
2022-12-02T09:38:08.371Z,30.35
2022-12-02T09:40:36.805Z,36.38
2022-12-02T09:43:06.427Z,40.35
2022-12-02T09:45:34.636Z,37.30
2022-12-02T09:48:02.838Z,35.03
2022-12-02T09:50:32.014Z,36.03
2022-12-02T09:53:04.314Z,33.58
2022-12-02T09:55:32.614Z,34.58
2022-12-02T09:58:03.169Z,34.00
2022-12-02T10:00:33.039Z,33.25
2022-12-02T10:03:01.355Z,31.90
2022-12-02T10:05:30.068Z,31.75
2022-12-02T10:07:59.295Z,31.50
2022-12-02T10:10:30.857Z,30.63
2022-12-02T10:13:01.845Z,30.90
2022-12-02T10:15:35.892Z,30.65
2022-12-02T10:18:08.340Z,30.58
2022-12-02T10:20:36.688Z,32.08
2022-12-02T10:23:10.177Z,34.35
2022-12-02T10:25:38.848Z,34.40
2022-12-02T10:28:07.240Z,36.35
2022-12-02T10:30:38.762Z,35.97
2022-12-02T10:33:08.518Z,37.72
2022-12-02T10:35:44.966Z,39.25
2022-12-02T10:38:29.380Z,44.28
2022-12-02T10:41:17.033Z,45.25
2022-12-02T10:43:45.860Z,46.08
2022-12-02T10:46:16.027Z,47.47
2022-12-02T10:48:44.292Z,45.83
2022-12-02T10:51:14.855Z,50.40
2022-12-02T10:53:43.565Z,51.00
2022-12-02T10:56:13.384Z,52.35
2022-12-02T10:58:41.937Z,53.00
2022-12-02T11:01:11.197Z,53.03
2022-12-02T11:03:40.898Z,52.97
2022-12-02T11:06:14.297Z,53.70
2022-12-02T11:08:44.245Z,52.50
2022-12-02T11:11:13.850Z,55.70
2022-12-02T11:13:55.144Z,53.47
2022-12-02T11:16:53.870Z,52.53
2022-12-02T11:19:46.837Z,53.60
2022-12-02T11:22:51.403Z,53.15
2022-12-02T11:25:54.628Z,52.97
2022-12-02T11:28:59.997Z,51.65
2022-12-02T11:31:28.477Z,53.33
2022-12-02T11:34:06.020Z,49.92
2022-12-02T11:36:36.655Z,50.72
2022-12-02T11:39:08.334Z,51.30
2022-12-02T11:42:13.915Z,48.75
2022-12-02T11:44:42.129Z,49.70
2022-12-02T11:47:26.942Z,48.13
2022-12-02T11:49:55.784Z,47.10
2022-12-02T11:52:26.598Z,47.08
2022-12-02T11:54:58.676Z,46.60
2022-12-02T11:57:29.937Z,47.33
2022-12-02T11:59:58.892Z,44.85
2022-12-02T12:02:27.306Z,46.35
2022-12-02T12:05:04.705Z,47.83
2022-12-02T12:07:45.641Z,47.88
2022-12-02T12:10:28.421Z,46.20
2022-12-02T12:13:15.615Z,44.97
2022-12-02T12:15:54.752Z,43.45
2022-12-02T12:18:44.158Z,36.45
2022-12-02T12:21:12.758Z,40.45
2022-12-02T12:23:43.902Z,38.10
2022-12-02T12:26:33.916Z,36.08
2022-12-02T12:29:05.835Z,35.05
2022-12-02T12:31:38.466Z,34.97
2022-12-02T12:34:07.857Z,33.78
2022-12-02T12:36:36.750Z,34.15
2022-12-02T12:39:08.978Z,34.28
2022-12-02T12:41:59.023Z,33.05
2022-12-02T12:44:29.967Z,34.83
2022-12-02T12:46:59.944Z,36.00
2022-12-02T12:49:28.341Z,36.80
2022-12-02T12:51:56.571Z,38.97
2022-12-02T12:54:26.045Z,33.70
2022-12-02T12:56:54.213Z,34.97
2022-12-02T12:59:22.281Z,38.67
2022-12-02T13:01:50.570Z,37.30
2022-12-02T13:04:18.756Z,36.67
2022-12-02T13:06:47.725Z,38.22
2022-12-02T13:09:16.036Z,38.17
2022-12-02T13:11:45.634Z,38.72
2022-12-02T13:14:13.725Z,39.95
2022-12-02T13:16:41.971Z,38.83
2022-12-02T13:19:10.118Z,37.95
2022-12-02T13:21:38.444Z,37.05
2022-12-02T13:24:07.404Z,36.90
2022-12-02T13:26:36.068Z,36.13
2022-12-02T13:29:06.474Z,36.95
2022-12-02T13:31:35.021Z,35.53
2022-12-02T13:34:03.645Z,35.15
2022-12-02T13:36:32.345Z,36.35
2022-12-02T13:39:06.047Z,34.83
2022-12-02T13:41:35.428Z,35.67
2022-12-02T13:44:05.685Z,36.67
2022-12-02T13:46:34.465Z,36.95
2022-12-02T13:49:02.724Z,35.20
2022-12-02T13:51:30.885Z,47.70
2022-12-02T13:53:59.647Z,40.60
2022-12-02T13:56:28.789Z,39.42
2022-12-02T13:58:56.892Z,42.80
2022-12-02T14:01:26.558Z,42.75
2022-12-02T14:03:54.901Z,41.17
2022-12-02T14:06:23.322Z,42.63
2022-12-02T14:08:52.148Z,41.50
2022-12-02T14:11:22.110Z,42.10
2022-12-02T14:13:51.697Z,40.70
2022-12-02T14:16:20.542Z,40.55
2022-12-02T14:18:56.840Z,40.53
2022-12-02T14:21:26.079Z,39.17
2022-12-02T14:23:54.750Z,39.10
2022-12-02T14:26:23.592Z,39.95
2022-12-02T14:28:52.179Z,40.00
2022-12-02T14:31:26.353Z,39.67
2022-12-02T14:34:13.894Z,39.30
2022-12-02T14:36:43.754Z,38.70
2022-12-02T14:39:12.792Z,39.60
2022-12-02T14:41:41.190Z,36.70
2022-12-02T14:44:09.851Z,32.58
2022-12-02T14:46:39.242Z,28.98
2022-12-02T14:49:38.439Z,29.92
2022-12-02T14:51:58.529Z,31.63
2022-12-02T14:54:27.380Z,30.63
2022-12-02T14:56:56.004Z,31.55
2022-12-02T14:59:24.666Z,31.73
2022-12-02T15:01:53.633Z,30.23
2022-12-02T15:04:23.817Z,35.03
2022-12-02T15:06:52.528Z,31.33
2022-12-02T15:09:21.431Z,34.63
2022-12-02T15:11:50.846Z,35.22
2022-12-02T15:14:19.538Z,36.00
2022-12-02T15:16:47.764Z,36.60
2022-12-02T15:19:16.260Z,35.95
2022-12-02T15:21:45.909Z,37.15
2022-12-02T15:24:14.214Z,38.08
2022-12-02T15:26:42.667Z,37.33
2022-12-02T15:29:10.922Z,35.17
2022-12-02T15:31:39.567Z,36.90
2022-12-02T15:34:08.401Z,34.67
2022-12-02T15:36:37.005Z,35.10
2022-12-02T15:39:07.203Z,36.22
2022-12-02T15:41:35.858Z,35.13
2022-12-02T15:44:04.592Z,36.13
2022-12-02T15:46:33.327Z,34.50
2022-12-02T15:49:02.013Z,36.05
2022-12-02T15:51:36.893Z,37.42
2022-12-02T15:54:07.447Z,36.78
2022-12-02T15:56:35.773Z,36.60
2022-12-02T15:59:04.047Z,36.35
2022-12-02T16:01:32.913Z,36.42
2022-12-02T16:04:01.552Z,36.20
2022-12-02T16:06:29.906Z,38.22
2022-12-02T16:08:58.490Z,38.42
2022-12-02T16:11:28.686Z,43.90
2022-12-02T16:13:57.304Z,41.33
2022-12-02T16:16:26.070Z,43.47
2022-12-02T16:18:54.761Z,41.65
2022-12-02T16:21:23.631Z,47.50
2022-12-02T16:23:52.456Z,47.55
2022-12-02T16:26:21.121Z,59.28
2022-12-02T16:28:51.547Z,58.25
2022-12-02T16:31:20.241Z,61.45
2022-12-02T16:33:49.057Z,61.05
2022-12-02T16:36:17.692Z,58.90
2022-12-02T16:38:46.287Z,57.05
2022-12-02T16:41:14.999Z,51.85
2022-12-02T16:43:43.818Z,47.58
2022-12-02T16:46:14.532Z,46.90
2022-12-02T16:48:43.422Z,47.08
2022-12-02T16:51:11.895Z,46.55
2022-12-02T16:53:41.287Z,47.70
2022-12-02T16:56:11.178Z,47.78
2022-12-02T16:58:40.574Z,49.90
2022-12-02T17:01:10.282Z,47.80
2022-12-02T17:03:40.646Z,48.92
2022-12-02T17:06:09.712Z,52.08
2022-12-02T17:08:38.526Z,48.78
2022-12-02T17:11:07.780Z,49.00
2022-12-02T17:13:36.089Z,51.90
2022-12-02T17:16:04.914Z,49.53
2022-12-02T17:18:33.461Z,51.20
2022-12-02T17:21:03.749Z,50.72
2022-12-02T17:23:32.731Z,49.70
2022-12-02T17:26:01.577Z,49.58
2022-12-02T17:28:30.471Z,51.10
2022-12-02T17:30:59.028Z,49.47
2022-12-02T17:33:27.859Z,49.88
2022-12-02T17:35:56.420Z,50.22
2022-12-02T17:38:26.925Z,48.95
2022-12-02T17:41:10.703Z,48.75
2022-12-02T17:43:39.606Z,49.85
2022-12-02T17:46:08.276Z,48.85
2022-12-02T17:48:36.897Z,48.47
2022-12-02T17:51:05.638Z,47.85
2022-12-02T17:53:36.501Z,47.55
2022-12-02T17:56:05.681Z,48.60
2022-12-02T17:58:34.565Z,49.78
2022-12-02T18:01:09.587Z,49.55
2022-12-02T18:03:40.664Z,47.80
2022-12-02T18:06:09.412Z,48.45
2022-12-02T18:08:39.481Z,47.10
2022-12-02T18:11:08.081Z,48.83
2022-12-02T18:13:36.723Z,49.90
2022-12-02T18:16:07.013Z,49.60
2022-12-02T18:18:35.718Z,50.15
2022-12-02T18:21:04.375Z,57.75
2022-12-02T18:23:33.016Z,62.08
2022-12-02T18:26:02.700Z,58.15
2022-12-02T18:28:30.849Z,58.60
2022-12-02T18:30:59.150Z,60.33
2022-12-02T18:33:27.611Z,57.30
2022-12-02T18:35:55.797Z,56.42
2022-12-02T18:38:24.042Z,52.38
2022-12-02T18:40:52.620Z,53.35
2022-12-02T18:43:22.401Z,54.00
2022-12-02T18:45:51.703Z,49.17
2022-12-02T18:48:20.601Z,47.15
2022-12-02T18:50:49.291Z,46.72
2022-12-02T18:53:18.079Z,46.67
2022-12-02T18:55:46.959Z,47.58
2022-12-02T18:58:15.760Z,46.35
2022-12-02T19:00:46.053Z,47.55
2022-12-02T19:03:14.410Z,46.75
2022-12-02T19:05:43.243Z,44.85
2022-12-02T19:08:12.077Z,45.05
2022-12-02T19:10:40.763Z,44.33
2022-12-02T19:13:09.652Z,45.60
2022-12-02T19:15:39.029Z,44.47
2022-12-02T19:18:10.768Z,43.67
2022-12-02T19:20:39.412Z,43.92
2022-12-02T19:23:07.733Z,44.17
2022-12-02T19:25:42.490Z,48.08
2022-12-02T19:28:13.776Z,48.30
2022-12-02T19:30:42.413Z,51.20
2022-12-02T19:33:12.573Z,56.97
2022-12-02T19:35:41.432Z,56.17
2022-12-02T19:38:14.933Z,55.28
2022-12-02T19:40:45.414Z,53.95
2022-12-02T19:43:14.605Z,55.33
2022-12-02T19:45:42.916Z,55.63
2022-12-02T19:48:12.845Z,56.83
2022-12-02T19:50:41.486Z,56.28
2022-12-02T19:53:10.108Z,57.50
2022-12-02T19:55:38.749Z,56.35
2022-12-02T19:58:07.344Z,56.60
2022-12-02T20:00:36.541Z,56.05
2022-12-02T20:03:05.659Z,56.38
2022-12-02T20:05:35.977Z,57.33
2022-12-02T20:08:04.732Z,58.13
2022-12-02T20:10:33.392Z,58.05
2022-12-02T20:13:02.065Z,52.95
2022-12-02T20:15:30.974Z,49.95
2022-12-02T20:17:59.634Z,49.67
2022-12-02T20:20:28.420Z,49.38
2022-12-02T20:22:58.667Z,48.95
2022-12-02T20:25:27.347Z,49.75
2022-12-02T20:27:55.540Z,47.47
2022-12-02T20:30:24.283Z,48.15
2022-12-02T20:32:52.789Z,48.15
2022-12-02T20:35:21.162Z,48.78
2022-12-02T20:37:49.737Z,47.15
2022-12-02T20:40:20.242Z,47.03
2022-12-02T20:42:48.599Z,46.17
2022-12-02T20:45:18.555Z,46.80
2022-12-02T20:47:47.146Z,45.17
2022-12-02T20:50:16.048Z,46.50
2022-12-02T20:52:51.418Z,45.67
2022-12-02T20:55:23.861Z,45.40
2022-12-02T20:57:52.263Z,47.10
2022-12-02T21:00:21.313Z,46.35
2022-12-02T21:02:50.192Z,44.28
2022-12-02T21:05:19.184Z,45.03
2022-12-02T21:07:48.031Z,44.92
2022-12-02T21:10:16.856Z,44.53
2022-12-02T21:12:46.778Z,44.00
2022-12-02T21:15:17.269Z,43.80
2022-12-02T21:17:45.852Z,43.10
2022-12-02T21:20:17.448Z,42.22
2022-12-02T21:22:46.751Z,42.10
2022-12-02T21:25:15.925Z,42.85
2022-12-02T21:27:45.156Z,42.17
2022-12-02T21:30:16.772Z,41.15
2022-12-02T21:32:45.419Z,41.15
2022-12-02T21:35:14.197Z,40.92
2022-12-02T21:37:42.649Z,40.03
2022-12-02T21:40:13.007Z,39.63
2022-12-02T21:42:41.702Z,40.05
2022-12-02T21:45:11.514Z,38.17
2022-12-02T21:47:41.821Z,39.53
2022-12-02T21:50:11.935Z,39.03
2022-12-02T21:52:40.604Z,38.20
2022-12-02T21:55:09.952Z,37.60
2022-12-02T21:57:38.377Z,37.78
2022-12-02T22:00:08.461Z,38.30
2022-12-02T22:02:44.269Z,36.92
2022-12-02T22:05:13.208Z,36.60
2022-12-02T22:07:42.298Z,36.92
2022-12-02T22:10:13.202Z,35.20
2022-12-02T22:12:41.562Z,35.55
2022-12-02T22:15:10.785Z,36.15
2022-12-02T22:17:39.630Z,35.47
2022-12-02T22:20:11.688Z,35.08
2022-12-02T22:22:39.989Z,34.75
2022-12-02T22:25:09.918Z,35.58
2022-12-02T22:27:38.552Z,34.20
2022-12-02T22:30:08.701Z,33.45
2022-12-02T22:32:37.358Z,33.70
2022-12-02T22:35:08.484Z,32.67
2022-12-02T22:37:38.796Z,33.17
2022-12-02T22:40:08.892Z,32.10
2022-12-02T22:42:37.541Z,32.05
2022-12-02T22:45:07.824Z,33.03
2022-12-02T22:47:36.755Z,30.55
2022-12-02T22:50:05.624Z,32.40
2022-12-02T22:52:34.193Z,32.15
2022-12-02T22:55:04.440Z,31.58
2022-12-02T22:57:32.917Z,30.60
2022-12-02T23:00:02.645Z,30.27
2022-12-02T23:02:31.391Z,29.58
2022-12-02T23:04:59.948Z,29.63
2022-12-02T23:07:28.770Z,30.90
2022-12-02T23:09:57.448Z,29.38
2022-12-02T23:12:27.845Z,29.65
2022-12-02T23:15:09.850Z,28.10
2022-12-02T23:17:45.334Z,28.83
2022-12-02T23:20:15.512Z,29.27
2022-12-02T23:22:44.343Z,27.98
2022-12-02T23:25:13.059Z,27.05
2022-12-02T23:27:43.413Z,27.73
2022-12-02T23:30:13.396Z,27.80
2022-12-02T23:32:42.031Z,27.67
2022-12-02T23:35:11.391Z,26.27
2022-12-02T23:37:40.004Z,27.13
2022-12-02T23:40:09.906Z,26.63
2022-12-02T23:42:38.659Z,26.83
2022-12-02T23:45:10.661Z,25.38
2022-12-02T23:47:39.596Z,25.55
2022-12-02T23:50:09.206Z,25.58
2022-12-02T23:52:37.902Z,25.50
2022-12-02T23:55:07.337Z,24.50
2022-12-02T23:57:35.977Z,24.42
